createdAt,value
2023-01-02T00:03:10.058Z,12.75
2023-01-02T00:09:28.555Z,16.09
2023-01-02T00:15:47.479Z,15.06
2023-01-02T00:22:07.609Z,13.77
2023-01-02T00:28:05.027Z,12.93
2023-01-02T00:41:04.182Z,11.82
2023-01-02T00:49:35.545Z,11.30
2023-01-02T01:01:52.992Z,10.40
2023-01-02T01:08:14.615Z,10.09
2023-01-02T01:13:31.292Z,9.85
2023-01-02T01:19:17.228Z,9.65
2023-01-02T01:25:41.295Z,9.50
2023-01-02T01:32:05.588Z,9.34
2023-01-02T01:38:21.361Z,11.32
2023-01-02T01:44:57.162Z,14.14
2023-01-02T01:51:15.244Z,12.40
2023-01-02T01:57:16.293Z,11.26
2023-01-02T02:03:39.519Z,10.56
2023-01-02T02:09:57.767Z,9.99
2023-01-02T02:15:58.006Z,9.51
2023-01-02T02:22:00.557Z,9.20
2023-01-02T02:28:38.101Z,8.91
2023-01-02T02:34:30.122Z,8.68
2023-01-02T02:40:40.586Z,8.50
2023-01-02T02:47:00.569Z,8.35
2023-01-02T02:53:17.086Z,10.42
2023-01-02T02:59:37.903Z,13.52
2023-01-02T03:05:34.969Z,12.13
2023-01-02T03:12:08.963Z,10.93
2023-01-02T03:26:38.665Z,9.37
2023-01-02T03:40:40.054Z,8.51
2023-01-02T03:47:50.140Z,8.20
2023-01-02T03:55:00.012Z,8.00
2023-01-02T04:01:28.523Z,7.87
2023-01-02T04:07:58.068Z,7.77
2023-01-02T04:34:51.243Z,10.76
2023-01-02T04:41:31.988Z,9.73
2023-01-02T04:47:14.376Z,9.07
2023-01-02T04:53:11.198Z,8.63
2023-01-02T04:58:40.513Z,8.31
2023-01-02T05:04:42.799Z,8.06
2023-01-02T05:10:46.944Z,7.85
2023-01-02T05:16:58.140Z,7.66
2023-01-02T05:23:07.695Z,7.50
2023-01-02T05:28:53.108Z,7.37
2023-01-02T05:34:25.313Z,7.23
2023-01-02T05:39:43.865Z,8.49
2023-01-02T05:45:00.189Z,11.93
2023-01-02T05:51:08.861Z,11.64
2023-01-02T05:57:30.262Z,9.89
2023-01-02T06:02:49.490Z,9.06
2023-01-02T06:08:30.357Z,8.47
2023-01-02T06:15:08.753Z,7.99
2023-01-02T06:21:33.497Z,7.54
2023-01-02T06:27:20.096Z,7.19
2023-01-02T06:33:08.162Z,6.96
2023-01-02T06:39:49.201Z,6.80
2023-01-02T06:51:58.021Z,6.56
2023-01-02T06:57:47.566Z,8.04
2023-01-02T07:04:10.669Z,11.74
2023-01-02T07:09:48.809Z,11.14
2023-01-02T07:16:12.497Z,9.74
2023-01-02T07:22:10.745Z,8.92
2023-01-02T07:28:45.112Z,8.31
2023-01-02T07:35:18.321Z,7.90
2023-01-02T07:41:46.216Z,7.57
2023-01-02T07:47:53.741Z,7.37
2023-01-02T07:54:32.842Z,7.24
2023-01-02T08:00:14.701Z,7.19
2023-01-02T08:05:58.054Z,7.17
2023-01-02T08:12:35.375Z,9.05
2023-01-02T08:17:57.351Z,12.90
2023-01-02T08:23:35.070Z,12.22
2023-01-02T08:29:50.435Z,10.90
2023-01-02T08:35:37.374Z,10.11
2023-01-02T08:41:52.532Z,9.61
2023-01-02T08:55:21.758Z,8.92
2023-01-02T09:00:54.249Z,8.73
2023-01-02T09:07:20.153Z,8.65
2023-01-02T09:13:50.660Z,10.69
2023-01-02T09:19:08.093Z,14.09
2023-01-02T09:24:42.911Z,13.21
2023-01-02T09:29:59.799Z,11.97
2023-01-02T09:35:47.887Z,11.38
2023-01-02T09:41:01.836Z,10.91
2023-01-02T09:46:32.168Z,10.60
2023-01-02T09:51:59.016Z,10.34
2023-01-02T09:57:42.031Z,10.19
2023-01-02T10:03:39.249Z,10.09
2023-01-02T10:09:33.460Z,11.95
2023-01-02T10:15:01.848Z,15.11
2023-01-02T10:20:30.599Z,14.48
2023-01-02T10:26:40.570Z,13.64
2023-01-02T10:32:26.384Z,13.26
2023-01-02T10:38:39.309Z,13.10
2023-01-02T10:43:58.159Z,13.01
2023-01-02T10:49:27.336Z,12.94
2023-01-02T10:55:09.823Z,12.89
2023-01-02T11:00:27.486Z,12.79
2023-01-02T11:06:41.214Z,12.69
2023-01-02T11:12:43.066Z,12.64
2023-01-02T11:18:16.912Z,12.61
2023-01-02T11:23:28.203Z,12.59
2023-01-02T11:29:39.346Z,12.58
2023-01-02T11:36:02.198Z,12.58
2023-01-02T11:42:10.365Z,12.60
2023-01-02T11:47:32.458Z,12.65
2023-01-02T11:53:18.424Z,12.70
2023-01-02T11:59:45.064Z,12.74
2023-01-02T12:06:06.812Z,12.81
2023-01-02T12:12:08.478Z,12.91
2023-01-02T12:17:55.358Z,12.98
2023-01-02T12:23:33.202Z,13.06
2023-01-02T12:29:00.147Z,13.17
2023-01-02T12:34:32.485Z,13.23
2023-01-02T12:40:28.582Z,13.27
2023-01-02T12:46:27.603Z,13.37
2023-01-02T12:52:32.312Z,13.52
2023-01-02T12:57:59.278Z,13.67
2023-01-02T13:03:49.322Z,13.75
2023-01-02T13:09:40.885Z,13.81
2023-01-02T13:15:03.658Z,13.83
2023-01-02T13:20:41.788Z,13.86
2023-01-02T13:26:06.612Z,13.96
2023-01-02T13:31:48.797Z,14.05
2023-01-02T13:37:02.209Z,14.07
2023-01-02T13:42:50.683Z,14.05
2023-01-02T13:48:17.973Z,14.07
2023-01-02T13:53:33.702Z,14.09
2023-01-02T13:59:43.244Z,14.05
2023-01-02T14:05:35.514Z,14.01
2023-01-02T14:10:47.222Z,14.00
2023-01-02T14:16:49.071Z,13.93
2023-01-02T14:22:56.606Z,13.80
2023-01-02T14:28:16.840Z,13.74
2023-01-02T14:34:07.870Z,13.72
2023-01-02T14:39:54.801Z,13.73
2023-01-02T14:45:16.391Z,13.73
2023-01-02T14:50:50.477Z,13.57
2023-01-02T14:56:23.157Z,13.39
2023-01-02T15:01:42.040Z,13.28
2023-01-02T15:07:22.805Z,13.17
2023-01-02T15:12:52.156Z,13.07
2023-01-02T15:18:47.304Z,13.01
2023-01-02T15:23:55.111Z,12.96
2023-01-02T15:29:35.585Z,12.89
2023-01-02T15:34:47.735Z,12.75
2023-01-02T15:40:49.710Z,12.61
2023-01-02T15:46:22.745Z,12.48
2023-01-02T15:51:57.816Z,12.32
2023-01-02T15:57:57.674Z,12.22
2023-01-02T16:04:02.127Z,12.13
2023-01-02T16:09:26.313Z,13.50
2023-01-02T16:14:38.479Z,16.60
2023-01-02T16:20:31.941Z,16.16
2023-01-02T16:26:15.273Z,14.90
2023-01-02T16:32:15.243Z,14.36
2023-01-02T16:37:29.524Z,14.69
2023-01-02T16:43:08.465Z,15.12
2023-01-02T16:48:36.350Z,15.41
2023-01-02T16:53:48.162Z,15.60
2023-01-02T16:59:52.820Z,15.50
2023-01-02T17:04:59.398Z,15.51
2023-01-02T17:10:23.092Z,15.58
2023-01-02T17:15:26.597Z,15.57
2023-01-02T17:20:35.191Z,15.30
2023-01-02T17:25:41.050Z,14.90
2023-01-02T17:30:45.380Z,14.49
2023-01-02T17:35:51.800Z,14.15
2023-01-02T17:41:16.522Z,13.75
2023-01-02T17:53:52.486Z,13.02
2023-01-02T17:59:11.482Z,12.84
2023-01-02T18:05:09.222Z,12.68
2023-01-02T18:10:23.701Z,12.54
2023-01-02T18:16:15.620Z,12.42
2023-01-02T18:21:47.882Z,12.30
2023-01-02T18:27:35.636Z,12.21
2023-01-02T18:33:15.166Z,12.16
2023-01-02T18:39:02.360Z,13.38
2023-01-02T18:44:49.771Z,16.68
2023-01-02T18:50:23.975Z,16.04
2023-01-02T18:55:51.228Z,14.86
2023-01-02T19:01:50.691Z,14.22
2023-01-02T19:07:56.601Z,13.65
2023-01-02T19:13:35.732Z,13.13
2023-01-02T19:19:02.686Z,12.68
2023-01-02T19:24:23.616Z,12.35
2023-01-02T19:29:46.578Z,12.10
2023-01-02T19:35:45.580Z,11.90
2023-01-02T19:41:50.829Z,13.51
2023-01-02T19:47:06.199Z,16.61
2023-01-02T19:52:45.787Z,15.71
2023-01-02T19:58:01.325Z,14.41
2023-01-02T20:03:07.708Z,13.76
2023-01-02T20:08:57.184Z,13.29
2023-01-02T20:14:09.991Z,12.89
2023-01-02T20:19:16.215Z,12.55
2023-01-02T20:24:45.948Z,12.24
2023-01-02T20:30:38.387Z,11.98
2023-01-02T20:36:09.804Z,11.77
2023-01-02T20:41:57.847Z,13.38
2023-01-02T20:47:08.069Z,16.48
2023-01-02T20:52:14.576Z,15.82
2023-01-02T20:58:12.604Z,14.37
2023-01-02T21:03:19.365Z,13.46
2023-01-02T21:08:38.113Z,12.85
2023-01-02T21:13:55.523Z,12.41
2023-01-02T21:19:30.247Z,12.03
2023-01-02T21:25:37.047Z,13.33
2023-01-02T21:31:33.814Z,16.52
2023-01-02T21:36:57.578Z,15.18
2023-01-02T21:42:23.811Z,13.87
2023-01-02T21:48:05.120Z,13.06
2023-01-02T21:54:14.263Z,12.37
2023-01-02T22:00:11.368Z,13.54
2023-01-02T22:05:36.559Z,16.13
2023-01-02T22:11:30.657Z,14.56
2023-01-02T22:17:41.331Z,13.12
2023-01-02T22:23:12.421Z,12.40
2023-01-02T22:29:04.974Z,11.90
2023-01-02T22:36:06.263Z,13.71
2023-01-02T22:41:31.746Z,15.89
2023-01-02T22:47:38.117Z,14.13
2023-01-02T22:53:02.543Z,12.92
2023-01-02T22:59:17.159Z,12.24
2023-01-02T23:04:35.131Z,11.67
2023-01-02T23:10:31.246Z,12.63
2023-01-02T23:16:43.444Z,15.83
2023-01-02T23:22:19.081Z,14.74
2023-01-02T23:29:05.103Z,13.12
2023-01-02T23:41:47.990Z,11.42
2023-01-02T23:47:20.130Z,12.84
2023-01-02T23:53:11.579Z,15.28
2023-01-02T23:59:39.067Z,13.67
